createdAt,value
2023-05-21T00:00:15.486Z,0.00
2023-05-21T00:01:15.501Z,0.00
2023-05-21T00:02:15.462Z,0.00
2023-05-21T00:03:15.575Z,0.00
2023-05-21T00:04:15.523Z,0.00
2023-05-21T00:05:15.527Z,0.00
2023-05-21T00:06:15.598Z,0.00
2023-05-21T00:07:15.441Z,0.00
2023-05-21T00:08:15.445Z,0.00
2023-05-21T00:09:15.434Z,0.00
2023-05-21T00:10:15.417Z,0.00
2023-05-21T00:11:15.411Z,0.00
2023-05-21T00:12:15.453Z,0.00
2023-05-21T00:13:15.457Z,0.00
2023-05-21T00:14:15.295Z,0.00
2023-05-21T00:15:15.432Z,0.00
2023-05-21T00:16:15.313Z,0.00
2023-05-21T00:17:15.299Z,0.00
2023-05-21T00:18:15.268Z,0.00
2023-05-21T00:19:15.321Z,0.00
2023-05-21T00:20:15.273Z,0.00
2023-05-21T00:21:15.243Z,0.00
2023-05-21T00:22:15.218Z,0.00
2023-05-21T00:23:15.210Z,0.00
2023-05-21T00:24:15.240Z,0.00
2023-05-21T00:25:15.192Z,0.00
2023-05-21T00:26:15.191Z,0.00
2023-05-21T00:27:15.176Z,0.00
2023-05-21T00:28:15.120Z,0.00
2023-05-21T00:29:15.143Z,0.00
2023-05-21T00:30:15.111Z,0.00
2023-05-21T00:31:15.184Z,0.00
2023-05-21T00:32:15.086Z,0.00
2023-05-21T00:33:15.077Z,0.00
2023-05-21T00:34:15.056Z,0.00
2023-05-21T00:35:15.052Z,0.00
2023-05-21T00:36:15.022Z,0.00
2023-05-21T00:37:15.040Z,0.00
2023-05-21T00:38:14.998Z,0.00
2023-05-21T00:39:15.007Z,0.00
2023-05-21T00:40:14.963Z,0.00
2023-05-21T00:41:15.037Z,0.00
2023-05-21T00:42:14.934Z,0.00
2023-05-21T00:43:14.952Z,0.00
2023-05-21T00:44:14.920Z,0.00
2023-05-21T00:45:14.930Z,0.00
2023-05-21T00:46:14.888Z,0.00
2023-05-21T00:47:14.918Z,0.00
2023-05-21T00:48:14.904Z,0.00
2023-05-21T00:49:14.865Z,0.00
2023-05-21T00:50:14.858Z,0.00
2023-05-21T00:51:14.836Z,0.00
2023-05-21T00:52:14.815Z,0.00
2023-05-21T00:53:14.830Z,0.00
2023-05-21T00:54:14.822Z,0.00
2023-05-21T00:55:14.790Z,0.00
2023-05-21T00:56:14.753Z,0.00
2023-05-21T00:57:14.783Z,0.00
2023-05-21T00:58:14.742Z,0.00
2023-05-21T00:59:14.746Z,0.00
2023-05-21T01:00:14.748Z,0.00
2023-05-21T01:01:14.736Z,0.00
2023-05-21T01:02:14.687Z,0.00
2023-05-21T01:03:14.845Z,0.00
2023-05-21T01:04:14.650Z,0.00
2023-05-21T01:05:14.696Z,0.00
2023-05-21T01:06:14.614Z,0.00
2023-05-21T01:07:14.693Z,0.00
2023-05-21T01:08:14.587Z,0.00
2023-05-21T01:09:14.612Z,0.00
2023-05-21T01:10:14.579Z,0.00
2023-05-21T01:11:14.578Z,0.00
2023-05-21T01:12:14.556Z,0.00
2023-05-21T01:13:14.555Z,0.00
2023-05-21T01:14:14.510Z,0.00
2023-05-21T01:15:14.551Z,0.00
2023-05-21T01:16:14.492Z,0.00
2023-05-21T01:17:14.508Z,0.00
2023-05-21T01:18:14.485Z,0.00
2023-05-21T01:19:14.544Z,0.00
2023-05-21T01:20:14.450Z,0.00
2023-05-21T01:21:14.442Z,0.00
2023-05-21T01:22:14.404Z,0.00
2023-05-21T01:23:14.432Z,0.00
2023-05-21T01:24:14.386Z,0.00
2023-05-21T01:25:14.416Z,0.00
2023-05-21T01:26:14.387Z,0.00
2023-05-21T01:27:14.367Z,0.00
2023-05-21T01:28:14.329Z,0.00
2023-05-21T01:29:14.461Z,0.00
2023-05-21T01:30:14.324Z,0.00
2023-05-21T01:31:14.321Z,0.00
2023-05-21T01:32:14.268Z,0.00
2023-05-21T01:33:14.375Z,0.00
2023-05-21T01:34:14.241Z,0.00
2023-05-21T01:35:14.290Z,0.00
2023-05-21T01:36:14.226Z,0.00
2023-05-21T01:37:14.238Z,0.00
2023-05-21T01:38:14.218Z,0.00
2023-05-21T01:39:14.259Z,0.00
2023-05-21T01:40:14.166Z,0.00
2023-05-21T01:41:14.228Z,0.00
2023-05-21T01:42:14.147Z,0.00
2023-05-21T01:43:14.183Z,0.00
2023-05-21T01:44:14.129Z,0.00
2023-05-21T01:45:14.148Z,0.00
2023-05-21T01:46:14.152Z,0.00
2023-05-21T01:47:14.116Z,0.00
2023-05-21T01:48:14.078Z,0.00
2023-05-21T01:49:14.169Z,0.00
2023-05-21T01:50:14.088Z,0.00
2023-05-21T01:51:14.104Z,0.00
2023-05-21T01:52:14.013Z,0.00
2023-05-21T01:53:14.028Z,0.00
2023-05-21T01:54:13.991Z,0.00
2023-05-21T01:55:14.001Z,0.00
2023-05-21T01:56:13.960Z,0.00
2023-05-21T01:57:14.012Z,0.00
2023-05-21T01:58:13.951Z,0.00
2023-05-21T01:59:13.968Z,0.00
2023-05-21T02:00:13.951Z,0.00
2023-05-21T02:01:13.937Z,0.00
2023-05-21T02:02:14.009Z,0.00
2023-05-21T02:03:13.960Z,0.00
2023-05-21T02:04:13.882Z,0.00
2023-05-21T02:05:13.871Z,0.00
2023-05-21T02:06:13.866Z,0.00
2023-05-21T02:07:13.864Z,0.00
2023-05-21T02:08:13.806Z,0.00
2023-05-21T02:09:13.839Z,0.00
2023-05-21T02:10:13.835Z,0.00
2023-05-21T02:11:13.799Z,0.00
2023-05-21T02:12:13.788Z,0.00
2023-05-21T02:13:13.781Z,0.00
2023-05-21T02:14:13.755Z,0.00
2023-05-21T02:15:13.726Z,0.00
2023-05-21T02:16:13.779Z,0.00
2023-05-21T02:17:13.718Z,0.00
2023-05-21T02:18:13.733Z,0.00
2023-05-21T02:19:13.725Z,0.00
2023-05-21T02:20:13.773Z,0.00
2023-05-21T02:21:13.652Z,0.00
2023-05-21T02:22:13.658Z,0.00
2023-05-21T02:23:13.639Z,0.00
2023-05-21T02:24:13.631Z,0.00
2023-05-21T02:25:13.584Z,0.00
2023-05-21T02:26:13.616Z,0.00
2023-05-21T02:27:13.589Z,0.00
2023-05-21T02:28:13.588Z,0.00
2023-05-21T02:29:13.543Z,0.00
2023-05-21T02:30:13.579Z,0.00
2023-05-21T02:31:13.540Z,0.00
2023-05-21T02:32:13.594Z,0.00
2023-05-21T02:33:13.502Z,0.00
2023-05-21T02:34:13.538Z,0.00
2023-05-21T02:35:13.460Z,0.00
2023-05-21T02:36:13.556Z,0.00
2023-05-21T02:37:13.439Z,0.00
2023-05-21T02:38:13.451Z,0.00
2023-05-21T02:39:13.413Z,0.00
2023-05-21T02:40:13.417Z,0.00
2023-05-21T02:41:13.393Z,0.00
2023-05-21T02:42:13.521Z,0.00
2023-05-21T02:43:15.407Z,0.00
2023-05-21T02:44:13.379Z,0.00
2023-05-21T02:45:13.367Z,0.00
2023-05-21T02:46:13.462Z,0.00
2023-05-21T02:47:13.320Z,0.00
2023-05-21T02:48:13.426Z,0.00
2023-05-21T02:49:13.275Z,0.00
2023-05-21T02:50:13.284Z,0.00
2023-05-21T02:51:13.252Z,0.00
2023-05-21T02:52:13.318Z,0.00
2023-05-21T02:53:13.224Z,0.00
2023-05-21T02:54:13.244Z,0.00
2023-05-21T02:55:13.211Z,0.00
2023-05-21T02:56:13.199Z,0.00
2023-05-21T02:57:13.197Z,0.00
2023-05-21T02:58:13.177Z,0.00
2023-05-21T02:59:13.166Z,0.00
2023-05-21T03:00:13.152Z,0.00
2023-05-21T03:01:13.165Z,0.00
2023-05-21T03:02:13.199Z,0.00
2023-05-21T03:03:13.249Z,0.00
2023-05-21T03:04:13.126Z,0.00
2023-05-21T03:05:13.074Z,0.00
2023-05-21T03:06:13.072Z,0.00
2023-05-21T03:07:13.034Z,0.00
2023-05-21T03:08:13.073Z,0.00
2023-05-21T03:09:13.012Z,0.00
2023-05-21T03:10:13.027Z,0.00
2023-05-21T03:11:13.010Z,0.00
2023-05-21T03:12:13.013Z,0.00
2023-05-21T03:13:12.972Z,0.00
2023-05-21T03:14:12.967Z,0.00
2023-05-21T03:15:12.950Z,0.00
2023-05-21T03:16:12.966Z,0.00
2023-05-21T03:17:12.897Z,0.00
2023-05-21T03:18:13.079Z,0.00
2023-05-21T03:19:12.917Z,0.00
2023-05-21T03:20:12.901Z,0.00
2023-05-21T03:21:12.874Z,0.00
2023-05-21T03:22:12.857Z,0.00
2023-05-21T03:23:14.898Z,0.00
2023-05-21T03:24:12.838Z,0.00
2023-05-21T03:25:12.854Z,0.00
2023-05-21T03:26:12.809Z,0.00
2023-05-21T03:27:12.787Z,0.00
2023-05-21T03:28:12.814Z,0.00
2023-05-21T03:29:12.737Z,0.00
2023-05-21T03:30:12.793Z,0.00
2023-05-21T03:31:12.739Z,0.00
2023-05-21T03:32:12.810Z,0.00
2023-05-21T03:33:12.769Z,0.00
2023-05-21T03:34:12.713Z,4.00
2023-05-21T03:35:12.672Z,4.00
2023-05-21T03:36:12.687Z,4.00
2023-05-21T03:37:12.651Z,0.00
2023-05-21T03:38:12.670Z,0.00
2023-05-21T03:39:12.637Z,0.00
2023-05-21T03:40:12.632Z,0.00
2023-05-21T03:41:12.609Z,0.00
2023-05-21T03:42:12.632Z,4.00
2023-05-21T03:43:12.556Z,4.00
2023-05-21T03:44:12.592Z,4.00
2023-05-21T03:45:12.532Z,0.00
2023-05-21T03:46:12.649Z,4.00
2023-05-21T03:47:12.532Z,4.00
2023-05-21T03:48:12.548Z,0.00
2023-05-21T03:49:12.492Z,4.00
2023-05-21T03:50:12.525Z,4.00
2023-05-21T03:51:12.471Z,4.00
2023-05-21T03:52:12.528Z,4.00
2023-05-21T03:53:12.436Z,4.00
2023-05-21T03:54:12.460Z,4.00
2023-05-21T03:55:12.423Z,4.00
2023-05-21T03:56:12.413Z,4.00
2023-05-21T03:57:12.372Z,8.00
2023-05-21T03:58:12.382Z,4.00
2023-05-21T03:59:12.340Z,8.00
2023-05-21T04:00:12.386Z,8.00
2023-05-21T04:01:12.351Z,8.00
2023-05-21T04:02:12.361Z,8.00
2023-05-21T04:03:12.495Z,8.00
2023-05-21T04:04:12.417Z,8.00
2023-05-21T04:05:12.285Z,12.00
2023-05-21T04:06:12.286Z,8.00
2023-05-21T04:07:12.259Z,8.00
2023-05-21T04:08:12.258Z,12.00
2023-05-21T04:09:12.218Z,8.00
2023-05-21T04:10:12.267Z,12.00
2023-05-21T04:11:12.194Z,12.00
2023-05-21T04:12:12.204Z,12.00
2023-05-21T04:13:12.173Z,12.00
2023-05-21T04:14:12.199Z,12.00
2023-05-21T04:15:12.133Z,12.00
2023-05-21T04:16:12.170Z,12.00
2023-05-21T04:17:12.152Z,16.00
2023-05-21T04:18:12.148Z,16.00
2023-05-21T04:19:12.188Z,16.00
2023-05-21T04:20:12.133Z,16.00
2023-05-21T04:21:12.067Z,20.00
2023-05-21T04:22:12.091Z,20.00
2023-05-21T04:23:12.029Z,20.00
2023-05-21T04:24:12.040Z,24.00
2023-05-21T04:25:12.046Z,20.00
2023-05-21T04:26:12.036Z,24.00
2023-05-21T04:27:11.982Z,24.00
2023-05-21T04:28:12.008Z,24.00
2023-05-21T04:29:11.975Z,28.00
2023-05-21T04:30:11.977Z,28.00
2023-05-21T04:31:11.971Z,28.00
2023-05-21T04:32:11.952Z,28.00
2023-05-21T04:33:11.916Z,32.00
2023-05-21T04:34:11.931Z,32.00
2023-05-21T04:35:11.883Z,28.00
2023-05-21T04:36:11.888Z,32.00
2023-05-21T04:37:11.874Z,32.00
2023-05-21T04:38:11.848Z,36.00
2023-05-21T04:39:11.879Z,36.00
2023-05-21T04:40:11.823Z,36.00
2023-05-21T04:41:11.789Z,36.00
2023-05-21T04:42:11.824Z,36.00
2023-05-21T04:43:11.817Z,40.00
2023-05-21T04:44:11.777Z,40.00
2023-05-21T04:45:11.752Z,40.00
2023-05-21T04:46:11.816Z,40.00
2023-05-21T04:47:11.773Z,40.00
2023-05-21T04:48:11.753Z,40.00
2023-05-21T04:49:12.069Z,40.00
2023-05-21T04:50:11.703Z,44.00
2023-05-21T04:51:11.684Z,44.00
2023-05-21T04:52:11.700Z,44.00
2023-05-21T04:53:11.633Z,48.00
2023-05-21T04:54:11.678Z,48.00
2023-05-21T04:55:11.626Z,48.00
2023-05-21T04:56:11.641Z,52.00
2023-05-21T04:57:11.613Z,52.00
2023-05-21T04:58:11.588Z,52.00
2023-05-21T04:59:11.576Z,52.00
2023-05-21T05:00:11.560Z,56.00
2023-05-21T05:01:11.542Z,56.00
2023-05-21T05:02:11.555Z,56.00
2023-05-21T05:03:11.605Z,60.00
2023-05-21T05:04:11.545Z,60.00
2023-05-21T05:05:11.480Z,60.00
2023-05-21T05:06:11.494Z,64.00
2023-05-21T05:07:11.453Z,64.00
2023-05-21T05:08:13.863Z,64.00
2023-05-21T05:09:11.427Z,64.00
2023-05-21T05:10:11.446Z,68.00
2023-05-21T05:11:11.412Z,68.00
2023-05-21T05:12:11.427Z,68.00
2023-05-21T05:13:11.425Z,72.00
2023-05-21T05:14:11.397Z,72.00
2023-05-21T05:15:11.384Z,72.00
2023-05-21T05:16:11.393Z,72.00
2023-05-21T05:17:11.365Z,76.00
2023-05-21T05:18:11.380Z,72.00
2023-05-21T05:19:11.380Z,76.00
2023-05-21T05:20:11.326Z,80.00
2023-05-21T05:21:11.272Z,80.00
2023-05-21T05:22:13.398Z,80.00
2023-05-21T05:23:11.258Z,84.00
2023-05-21T05:24:11.273Z,84.00
2023-05-21T05:25:11.254Z,88.00
2023-05-21T05:26:11.249Z,84.00
2023-05-21T05:27:11.204Z,88.00
2023-05-21T05:28:11.206Z,88.00
2023-05-21T05:29:11.184Z,88.00
2023-05-21T05:30:11.209Z,88.00
2023-05-21T05:31:11.195Z,88.00
2023-05-21T05:32:11.149Z,88.00
2023-05-21T05:33:11.148Z,92.00
2023-05-21T05:34:11.126Z,92.00
2023-05-21T05:35:11.114Z,88.00
2023-05-21T05:36:11.148Z,88.00
2023-05-21T05:37:11.060Z,88.00
2023-05-21T05:38:11.082Z,88.00
2023-05-21T05:39:11.069Z,92.00
2023-05-21T05:40:11.061Z,88.00
2023-05-21T05:41:11.037Z,88.00
2023-05-21T05:42:11.009Z,88.00
2023-05-21T05:43:11.008Z,92.00
2023-05-21T05:44:11.112Z,88.00
2023-05-21T05:45:10.976Z,92.00
2023-05-21T05:46:10.999Z,88.00
2023-05-21T05:47:10.932Z,92.00
2023-05-21T05:48:10.980Z,92.00
2023-05-21T05:49:10.927Z,92.00
2023-05-21T05:50:10.932Z,92.00
2023-05-21T05:51:10.867Z,92.00
2023-05-21T05:52:10.888Z,92.00
2023-05-21T05:53:10.846Z,96.00
2023-05-21T05:54:10.889Z,96.00
2023-05-21T05:55:10.833Z,92.00
2023-05-21T05:56:10.832Z,92.00
2023-05-21T05:57:10.791Z,96.00
2023-05-21T05:58:10.831Z,96.00
2023-05-21T05:59:10.770Z,96.00
2023-05-21T06:00:10.797Z,96.00
2023-05-21T06:01:10.753Z,100.00
2023-05-21T06:02:10.822Z,100.00
2023-05-21T06:03:10.819Z,100.00
2023-05-21T06:04:10.795Z,100.00
2023-05-21T06:05:10.709Z,100.00
2023-05-21T06:06:10.730Z,100.00
2023-05-21T06:07:10.690Z,104.00
2023-05-21T06:08:10.705Z,104.00
2023-05-21T06:09:10.633Z,104.00
2023-05-21T06:10:10.681Z,104.00
2023-05-21T06:11:10.612Z,108.00
2023-05-21T06:12:14.593Z,108.00
2023-05-21T06:13:10.597Z,108.00
2023-05-21T06:14:10.594Z,112.00
2023-05-21T06:15:10.548Z,112.00
2023-05-21T06:16:10.629Z,108.00
2023-05-21T06:17:10.521Z,108.00
2023-05-21T06:18:10.581Z,112.00
2023-05-21T06:19:10.559Z,112.00
2023-05-21T06:20:10.515Z,116.00
2023-05-21T06:21:10.502Z,112.00
2023-05-21T06:22:10.490Z,116.00
2023-05-21T06:23:10.439Z,116.00
2023-05-21T06:24:10.486Z,116.00
2023-05-21T06:25:10.416Z,120.00
2023-05-21T06:26:10.451Z,120.00
2023-05-21T06:27:10.420Z,120.00
2023-05-21T06:28:10.377Z,120.00
2023-05-21T06:29:10.396Z,124.00
2023-05-21T06:30:10.396Z,124.00
2023-05-21T06:31:10.384Z,124.00
2023-05-21T06:32:10.356Z,124.00
2023-05-21T06:33:10.403Z,128.00
2023-05-21T06:34:10.309Z,128.00
2023-05-21T06:35:10.331Z,124.00
2023-05-21T06:36:10.280Z,128.00
2023-05-21T06:37:10.289Z,128.00
2023-05-21T06:38:10.282Z,128.00
2023-05-21T06:39:10.272Z,128.00
2023-05-21T06:40:10.226Z,128.00
2023-05-21T06:41:10.264Z,128.00
2023-05-21T06:42:10.245Z,128.00
2023-05-21T06:43:10.226Z,128.00
2023-05-21T06:44:10.192Z,128.00
2023-05-21T06:45:10.206Z,128.00
2023-05-21T06:46:10.231Z,128.00
2023-05-21T06:47:10.161Z,128.00
2023-05-21T06:48:10.220Z,132.00
2023-05-21T06:49:11.276Z,132.00
2023-05-21T06:50:10.125Z,132.00
2023-05-21T06:51:10.131Z,132.00
2023-05-21T06:52:10.106Z,132.00
2023-05-21T06:53:10.116Z,136.00
2023-05-21T06:54:10.049Z,136.00
2023-05-21T06:55:10.054Z,136.00
2023-05-21T06:56:10.083Z,136.00
2023-05-21T06:57:10.038Z,140.00
2023-05-21T06:58:10.005Z,136.00
2023-05-21T06:59:10.012Z,140.00
2023-05-21T07:00:09.994Z,144.00
2023-05-21T07:01:10.050Z,144.00
2023-05-21T07:02:09.948Z,140.00
2023-05-21T07:03:10.107Z,144.00
2023-05-21T07:04:09.915Z,144.00
2023-05-21T07:05:09.928Z,144.00
2023-05-21T07:06:09.921Z,148.00
2023-05-21T07:07:09.890Z,152.00
2023-05-21T07:08:11.905Z,148.00
2023-05-21T07:09:09.887Z,152.00
2023-05-21T07:10:09.834Z,152.00
2023-05-21T07:11:09.866Z,152.00
2023-05-21T07:12:09.838Z,156.00
2023-05-21T07:13:09.822Z,156.00
2023-05-21T07:14:09.785Z,160.00
2023-05-21T07:15:09.785Z,160.00
2023-05-21T07:16:09.954Z,160.00
2023-05-21T07:17:09.909Z,160.00
2023-05-21T07:18:09.832Z,164.00
2023-05-21T07:19:09.802Z,164.00
2023-05-21T07:20:09.706Z,168.00
2023-05-21T07:21:09.707Z,168.00
2023-05-21T07:22:09.716Z,168.00
2023-05-21T07:23:09.691Z,168.00
2023-05-21T07:24:09.671Z,168.00
2023-05-21T07:25:09.706Z,172.00
2023-05-21T07:26:09.639Z,176.00
2023-05-21T07:27:24.727Z,172.00
2023-05-21T07:28:09.653Z,176.00
2023-05-21T07:29:09.611Z,180.00
2023-05-21T07:30:09.584Z,180.00
2023-05-21T07:31:09.604Z,184.00
2023-05-21T07:32:09.540Z,184.00
2023-05-21T07:33:09.579Z,188.00
2023-05-21T07:34:09.549Z,192.00
2023-05-21T07:35:09.538Z,192.00
2023-05-21T07:36:09.501Z,192.00
2023-05-21T07:37:09.509Z,196.00
2023-05-21T07:38:09.498Z,200.00
2023-05-21T07:39:09.481Z,204.00
2023-05-21T07:40:09.462Z,204.00
2023-05-21T07:41:09.450Z,208.00
2023-05-21T07:42:09.438Z,212.00
2023-05-21T07:43:09.436Z,212.00
2023-05-21T07:44:09.435Z,216.00
2023-05-21T07:45:09.411Z,220.00
2023-05-21T07:46:09.409Z,220.00
2023-05-21T07:47:09.376Z,224.00
2023-05-21T07:48:09.432Z,228.00
2023-05-21T07:49:09.369Z,232.00
2023-05-21T07:50:09.313Z,240.00
2023-05-21T07:51:09.350Z,244.00
2023-05-21T07:52:09.297Z,252.00
2023-05-21T07:53:09.323Z,256.00
2023-05-21T07:54:09.281Z,256.00
2023-05-21T07:55:09.272Z,260.00
2023-05-21T07:56:09.245Z,260.00
2023-05-21T07:57:09.257Z,264.00
2023-05-21T07:58:09.236Z,268.00
2023-05-21T07:59:09.238Z,276.00
2023-05-21T08:00:09.205Z,284.00
2023-05-21T08:01:09.194Z,292.00
2023-05-21T08:02:09.188Z,304.00
2023-05-21T08:03:09.304Z,320.00
2023-05-21T08:04:09.287Z,328.00
2023-05-21T08:05:09.219Z,332.00
2023-05-21T08:06:09.115Z,336.00
2023-05-21T08:07:09.119Z,348.00
2023-05-21T08:08:09.111Z,356.00
2023-05-21T08:09:09.137Z,368.00
2023-05-21T08:10:09.146Z,384.00
2023-05-21T08:11:09.077Z,400.00
2023-05-21T08:12:09.020Z,420.00
2023-05-21T08:13:09.080Z,444.00
2023-05-21T08:14:09.013Z,460.00
2023-05-21T08:15:09.017Z,476.00
2023-05-21T08:16:09.063Z,508.00
2023-05-21T08:17:08.997Z,540.00
2023-05-21T08:18:08.986Z,576.00
2023-05-21T08:19:09.051Z,584.00
2023-05-21T08:20:08.933Z,596.00
2023-05-21T08:21:08.950Z,596.00
2023-05-21T08:22:08.875Z,620.00
2023-05-21T08:23:08.907Z,652.00
2023-05-21T08:24:08.872Z,692.00
2023-05-21T08:25:08.907Z,708.00
2023-05-21T08:26:08.848Z,704.00
2023-05-21T08:27:08.831Z,716.00
2023-05-21T08:28:08.825Z,720.00
2023-05-21T08:29:08.851Z,736.00
2023-05-21T08:30:08.838Z,764.00
2023-05-21T08:31:08.807Z,796.00
2023-05-21T08:32:08.924Z,784.00
2023-05-21T08:33:08.886Z,800.00
2023-05-21T08:34:08.750Z,792.00
2023-05-21T08:35:08.757Z,796.00
2023-05-21T08:36:08.719Z,796.00
2023-05-21T08:37:08.741Z,800.00
2023-05-21T08:38:08.699Z,796.00
2023-05-21T08:39:08.679Z,812.00
2023-05-21T08:40:08.674Z,816.00
2023-05-21T08:41:08.658Z,812.00
2023-05-21T08:42:08.725Z,808.00
2023-05-21T08:43:08.661Z,808.00
2023-05-21T08:44:08.657Z,812.00
2023-05-21T08:45:08.643Z,816.00
2023-05-21T08:46:08.653Z,816.00
2023-05-21T08:47:08.590Z,816.00
2023-05-21T08:48:08.556Z,808.00
2023-05-21T08:49:08.571Z,800.00
2023-05-21T08:50:08.534Z,800.00
2023-05-21T08:51:08.533Z,792.00
2023-05-21T08:52:08.530Z,788.00
2023-05-21T08:53:15.889Z,780.00
2023-05-21T08:54:08.504Z,780.00
2023-05-21T08:55:08.478Z,768.00
2023-05-21T08:56:08.450Z,760.00
2023-05-21T08:57:08.463Z,744.00
2023-05-21T08:58:08.423Z,748.00
2023-05-21T08:59:08.493Z,748.00
2023-05-21T09:00:08.391Z,748.00
2023-05-21T09:01:08.445Z,748.00
2023-05-21T09:02:08.376Z,740.00
2023-05-21T09:03:08.458Z,712.00
2023-05-21T09:04:20.128Z,700.00
2023-05-21T09:05:08.361Z,700.00
2023-05-21T09:06:08.312Z,676.00
2023-05-21T09:07:08.331Z,656.00
2023-05-21T09:08:08.318Z,624.00
2023-05-21T09:09:08.307Z,612.00
2023-05-21T09:10:08.281Z,584.00
2023-05-21T09:11:08.285Z,576.00
2023-05-21T09:12:08.224Z,544.00
2023-05-21T09:13:08.273Z,528.00
2023-05-21T09:14:08.241Z,508.00
2023-05-21T09:15:08.222Z,500.00
2023-05-21T09:16:08.205Z,480.00
2023-05-21T09:17:08.318Z,464.00
2023-05-21T09:18:08.189Z,428.00
2023-05-21T09:19:08.201Z,400.00
2023-05-21T09:20:08.169Z,408.00
2023-05-21T09:21:08.140Z,384.00
2023-05-21T09:22:08.147Z,372.00
2023-05-21T09:23:08.123Z,360.00
2023-05-21T09:24:08.081Z,348.00
2023-05-21T09:25:08.132Z,348.00
2023-05-21T09:26:08.057Z,332.00
2023-05-21T09:27:08.081Z,340.00
2023-05-21T09:28:08.033Z,340.00
2023-05-21T09:29:08.052Z,344.00
2023-05-21T09:30:08.073Z,340.00
2023-05-21T09:31:08.028Z,340.00
2023-05-21T09:32:08.003Z,332.00
2023-05-21T09:33:08.053Z,336.00
2023-05-21T09:34:07.970Z,336.00
2023-05-21T09:35:08.012Z,328.00
2023-05-21T09:36:07.968Z,324.00
2023-05-21T09:37:16.504Z,324.00
2023-05-21T09:38:07.891Z,324.00
2023-05-21T09:39:07.920Z,324.00
2023-05-21T09:40:07.863Z,328.00
2023-05-21T09:41:07.896Z,328.00
2023-05-21T09:42:07.874Z,332.00
2023-05-21T09:43:07.874Z,332.00
2023-05-21T09:44:07.850Z,336.00
2023-05-21T09:45:07.849Z,332.00
2023-05-21T09:46:07.830Z,328.00
2023-05-21T09:47:07.837Z,328.00
2023-05-21T09:48:07.792Z,328.00
2023-05-21T09:49:07.788Z,328.00
2023-05-21T09:50:07.787Z,336.00
2023-05-21T09:51:07.748Z,336.00
2023-05-21T09:52:07.706Z,348.00
2023-05-21T09:53:07.771Z,360.00
2023-05-21T09:54:07.695Z,360.00
2023-05-21T09:55:07.732Z,360.00
2023-05-21T09:56:07.666Z,352.00
2023-05-21T09:57:07.692Z,352.00
2023-05-21T09:58:07.643Z,360.00
2023-05-21T09:59:07.661Z,360.00
2023-05-21T10:00:07.624Z,368.00
2023-05-21T10:01:07.637Z,408.00
2023-05-21T10:02:07.730Z,464.00
2023-05-21T10:03:07.678Z,440.00
2023-05-21T10:04:07.611Z,408.00
2023-05-21T10:05:07.609Z,392.00
2023-05-21T10:06:07.558Z,376.00
2023-05-21T10:07:07.565Z,364.00
2023-05-21T10:08:07.508Z,360.00
2023-05-21T10:09:07.538Z,360.00
2023-05-21T10:10:07.487Z,376.00
2023-05-21T10:11:07.541Z,384.00
2023-05-21T10:12:07.465Z,364.00
2023-05-21T10:13:07.496Z,372.00
2023-05-21T10:14:07.482Z,396.00
2023-05-21T10:15:07.447Z,368.00
2023-05-21T10:16:07.451Z,340.00
2023-05-21T10:17:07.446Z,336.00
2023-05-21T10:18:07.462Z,336.00
2023-05-21T10:19:07.420Z,332.00
2023-05-21T10:20:07.377Z,336.00
2023-05-21T10:21:07.375Z,348.00
2023-05-21T10:22:07.357Z,360.00
2023-05-21T10:23:07.350Z,360.00
2023-05-21T10:24:07.322Z,416.00
2023-05-21T10:25:07.311Z,412.00
2023-05-21T10:26:07.312Z,392.00
2023-05-21T10:27:07.273Z,396.00
2023-05-21T10:28:07.340Z,384.00
2023-05-21T10:29:07.243Z,380.00
2023-05-21T10:30:07.273Z,388.00
2023-05-21T10:31:07.254Z,396.00
2023-05-21T10:32:07.269Z,420.00
2023-05-21T10:33:07.231Z,420.00
2023-05-21T10:34:07.220Z,428.00
2023-05-21T10:35:07.168Z,424.00
2023-05-21T10:36:07.190Z,424.00
2023-05-21T10:37:07.136Z,416.00
2023-05-21T10:38:07.163Z,412.00
2023-05-21T10:39:07.140Z,416.00
2023-05-21T10:40:07.151Z,420.00
2023-05-21T10:41:07.186Z,424.00
2023-05-21T10:42:07.086Z,436.00
2023-05-21T10:43:07.095Z,480.00
2023-05-21T10:44:07.074Z,500.00
2023-05-21T10:45:07.076Z,448.00
2023-05-21T10:46:07.078Z,440.00
2023-05-21T10:47:07.050Z,456.00
2023-05-21T10:48:07.071Z,436.00
2023-05-21T10:49:07.016Z,428.00
2023-05-21T10:50:06.963Z,428.00
2023-05-21T10:51:07.024Z,416.00
2023-05-21T10:52:06.944Z,412.00
2023-05-21T10:53:07.694Z,408.00
2023-05-21T10:54:06.904Z,404.00
2023-05-21T10:55:06.951Z,392.00
2023-05-21T10:56:06.904Z,384.00
2023-05-21T10:57:06.913Z,372.00
2023-05-21T10:58:06.880Z,364.00
2023-05-21T10:59:06.886Z,360.00
2023-05-21T11:00:06.849Z,352.00
2023-05-21T11:01:06.876Z,344.00
2023-05-21T11:02:06.872Z,336.00
2023-05-21T11:03:06.904Z,324.00
2023-05-21T11:04:06.786Z,324.00
2023-05-21T11:05:06.793Z,312.00
2023-05-21T11:06:06.818Z,304.00
2023-05-21T11:07:06.785Z,296.00
2023-05-21T11:08:06.856Z,288.00
2023-05-21T11:09:06.760Z,284.00
2023-05-21T11:10:06.694Z,272.00
2023-05-21T11:11:06.748Z,272.00
2023-05-21T11:12:06.698Z,264.00
2023-05-21T11:13:06.725Z,260.00
2023-05-21T11:14:06.662Z,256.00
2023-05-21T11:15:06.669Z,252.00
2023-05-21T11:16:06.657Z,252.00
2023-05-21T11:17:06.818Z,248.00
2023-05-21T11:18:06.625Z,248.00
2023-05-21T11:19:06.644Z,248.00
2023-05-21T11:20:06.599Z,248.00
2023-05-21T11:21:06.596Z,244.00
2023-05-21T11:22:06.567Z,244.00
2023-05-21T11:23:06.581Z,248.00
2023-05-21T11:24:06.603Z,252.00
2023-05-21T11:25:06.556Z,252.00
2023-05-21T11:26:06.493Z,256.00
2023-05-21T11:27:06.502Z,260.00
2023-05-21T11:28:06.498Z,268.00
2023-05-21T11:29:06.511Z,276.00
2023-05-21T11:30:06.442Z,280.00
2023-05-21T11:31:06.483Z,288.00
2023-05-21T11:32:06.415Z,300.00
2023-05-21T11:33:06.536Z,316.00
2023-05-21T11:34:06.393Z,316.00
2023-05-21T11:35:06.400Z,340.00
2023-05-21T11:36:06.366Z,348.00
2023-05-21T11:37:06.414Z,360.00
2023-05-21T11:38:06.351Z,372.00
2023-05-21T11:39:06.342Z,380.00
2023-05-21T11:40:06.347Z,380.00
2023-05-21T11:41:06.350Z,380.00
2023-05-21T11:42:06.302Z,380.00
2023-05-21T11:43:06.334Z,376.00
2023-05-21T11:44:06.247Z,380.00
2023-05-21T11:45:06.268Z,372.00
2023-05-21T11:46:06.307Z,372.00
2023-05-21T11:47:06.258Z,368.00
2023-05-21T11:48:06.253Z,360.00
2023-05-21T11:49:06.222Z,360.00
2023-05-21T11:50:06.189Z,356.00
2023-05-21T11:51:06.232Z,352.00
2023-05-21T11:52:06.176Z,352.00
2023-05-21T11:53:06.170Z,352.00
2023-05-21T11:54:06.128Z,348.00
2023-05-21T11:55:06.150Z,344.00
2023-05-21T11:56:06.100Z,344.00
2023-05-21T11:57:06.146Z,336.00
2023-05-21T11:58:06.122Z,336.00
2023-05-21T11:59:06.114Z,328.00
2023-05-21T12:00:06.074Z,332.00
2023-05-21T12:01:06.070Z,324.00
2023-05-21T12:02:06.041Z,320.00
2023-05-21T12:03:06.139Z,320.00
2023-05-21T12:04:06.121Z,316.00
2023-05-21T12:05:06.004Z,312.00
2023-05-21T12:06:06.035Z,312.00
2023-05-21T12:07:06.019Z,304.00
2023-05-21T12:08:05.961Z,300.00
2023-05-21T12:09:05.973Z,292.00
2023-05-21T12:10:05.912Z,292.00
2023-05-21T12:11:05.950Z,288.00
2023-05-21T12:12:05.933Z,288.00
2023-05-21T12:13:05.916Z,288.00
2023-05-21T12:14:05.884Z,276.00
2023-05-21T12:15:05.890Z,276.00
2023-05-21T12:16:07.046Z,272.00
2023-05-21T12:17:05.884Z,264.00
2023-05-21T12:18:05.874Z,256.00
2023-05-21T12:19:05.842Z,256.00
2023-05-21T12:20:05.844Z,256.00
2023-05-21T12:21:05.801Z,256.00
2023-05-21T12:22:05.818Z,256.00
2023-05-21T12:23:05.795Z,256.00
2023-05-21T12:24:05.750Z,256.00
2023-05-21T12:25:05.766Z,256.00
2023-05-21T12:26:05.719Z,256.00
2023-05-21T12:27:05.743Z,256.00
2023-05-21T12:28:05.719Z,256.00
2023-05-21T12:29:05.699Z,260.00
2023-05-21T12:30:05.671Z,260.00
2023-05-21T12:31:05.690Z,260.00
2023-05-21T12:32:05.746Z,264.00
2023-05-21T12:33:05.700Z,260.00
2023-05-21T12:34:05.618Z,256.00
2023-05-21T12:35:05.694Z,260.00
2023-05-21T12:36:05.610Z,256.00
2023-05-21T12:37:05.602Z,256.00
2023-05-21T12:38:05.571Z,256.00
2023-05-21T12:39:05.574Z,256.00
2023-05-21T12:40:05.616Z,256.00
2023-05-21T12:41:05.548Z,256.00
2023-05-21T12:42:05.508Z,256.00
2023-05-21T12:43:05.534Z,260.00
2023-05-21T12:44:05.482Z,256.00
2023-05-21T12:45:05.505Z,256.00
2023-05-21T12:46:05.505Z,252.00
2023-05-21T12:47:05.462Z,248.00